sensor_id;sensor_type;location;lat;lon;timestamp;temperature;humidity
13673;DHT22;6909;52.202;9.876;2023-12-07T00:01:48;2.00;99.90
13673;DHT22;6909;52.202;9.876;2023-12-07T00:04:15;2.00;99.90
13673;DHT22;6909;52.202;9.876;2023-12-07T00:06:41;2.00;99.90
13673;DHT22;6909;52.202;9.876;2023-12-07T00:09:09;2.00;99.90
13673;DHT22;6909;52.202;9.876;2023-12-07T00:11:36;2.00;99.90
13673;DHT22;6909;52.202;9.876;2023-12-07T00:14:02;2.00;99.90
13673;DHT22;6909;52.202;9.876;2023-12-07T00:16:29;2.00;99.90
13673;DHT22;6909;52.202;9.876;2023-12-07T00:18:56;2.00;99.90
13673;DHT22;6909;52.202;9.876;2023-12-07T00:21:23;2.10;99.90
13673;DHT22;6909;52.202;9.876;2023-12-07T00:23:49;2.10;99.90
13673;DHT22;6909;52.202;9.876;2023-12-07T00:26:17;2.10;99.90
13673;DHT22;6909;52.202;9.876;2023-12-07T00:28:44;2.20;99.90
13673;DHT22;6909;52.202;9.876;2023-12-07T00:31:10;2.20;99.90
13673;DHT22;6909;52.202;9.876;2023-12-07T00:33:37;2.20;99.90
13673;DHT22;6909;52.202;9.876;2023-12-07T00:36:04;2.20;99.90
13673;DHT22;6909;52.202;9.876;2023-12-07T00:38:31;2.20;99.90
13673;DHT22;6909;52.202;9.876;2023-12-07T00:40:58;2.20;99.90
13673;DHT22;6909;52.202;9.876;2023-12-07T00:43:26;2.20;99.90
13673;DHT22;6909;52.202;9.876;2023-12-07T00:45:53;2.20;99.90
13673;DHT22;6909;52.202;9.876;2023-12-07T00:48:20;2.20;99.90
13673;DHT22;6909;52.202;9.876;2023-12-07T00:50:46;2.20;99.90
13673;DHT22;6909;52.202;9.876;2023-12-07T00:53:13;2.20;99.90
13673;DHT22;6909;52.202;9.876;2023-12-07T00:55:40;2.10;99.90
13673;DHT22;6909;52.202;9.876;2023-12-07T00:58:06;2.10;99.90
13673;DHT22;6909;52.202;9.876;2023-12-07T01:00:34;2.10;99.90
13673;DHT22;6909;52.202;9.876;2023-12-07T01:03:02;2.10;99.90
13673;DHT22;6909;52.202;9.876;2023-12-07T01:05:28;2.10;99.90
13673;DHT22;6909;52.202;9.876;2023-12-07T01:07:55;2.10;99.90
13673;DHT22;6909;52.202;9.876;2023-12-07T01:10:22;2.10;99.90
13673;DHT22;6909;52.202;9.876;2023-12-07T01:12:48;2.10;99.90
13673;DHT22;6909;52.202;9.876;2023-12-07T01:15:15;2.10;99.90
13673;DHT22;6909;52.202;9.876;2023-12-07T01:17:43;2.10;99.90
13673;DHT22;6909;52.202;9.876;2023-12-07T01:20:10;2.10;99.90
13673;DHT22;6909;52.202;9.876;2023-12-07T01:22:39;2.10;99.90
13673;DHT22;6909;52.202;9.876;2023-12-07T01:25:06;2.10;99.90
13673;DHT22;6909;52.202;9.876;2023-12-07T01:27:33;2.20;99.90
13673;DHT22;6909;52.202;9.876;2023-12-07T01:30:00;2.10;99.90
13673;DHT22;6909;52.202;9.876;2023-12-07T01:32:27;2.10;99.90
13673;DHT22;6909;52.202;9.876;2023-12-07T01:34:55;2.10;99.90
13673;DHT22;6909;52.202;9.876;2023-12-07T01:37:21;2.20;99.90
13673;DHT22;6909;52.202;9.876;2023-12-07T01:39:49;2.20;99.90
13673;DHT22;6909;52.202;9.876;2023-12-07T01:42:16;2.20;99.90
13673;DHT22;6909;52.202;9.876;2023-12-07T01:44:42;2.20;99.90
13673;DHT22;6909;52.202;9.876;2023-12-07T01:47:09;2.20;99.90
13673;DHT22;6909;52.202;9.876;2023-12-07T01:49:36;2.20;99.90
13673;DHT22;6909;52.202;9.876;2023-12-07T01:52:05;2.30;99.90
13673;DHT22;6909;52.202;9.876;2023-12-07T01:54:32;2.20;99.90
13673;DHT22;6909;52.202;9.876;2023-12-07T01:56:59;2.20;99.90
13673;DHT22;6909;52.202;9.876;2023-12-07T01:59:26;2.20;99.90
13673;DHT22;6909;52.202;9.876;2023-12-07T02:01:53;2.20;99.90
13673;DHT22;6909;52.202;9.876;2023-12-07T02:04:20;2.20;99.90
13673;DHT22;6909;52.202;9.876;2023-12-07T02:06:46;2.20;99.90
13673;DHT22;6909;52.202;9.876;2023-12-07T02:09:15;2.20;99.90
13673;DHT22;6909;52.202;9.876;2023-12-07T02:11:42;2.20;99.90
13673;DHT22;6909;52.202;9.876;2023-12-07T02:14:08;2.20;99.90
13673;DHT22;6909;52.202;9.876;2023-12-07T02:16:41;2.20;99.90
13673;DHT22;6909;52.202;9.876;2023-12-07T02:19:18;2.20;99.90
13673;DHT22;6909;52.202;9.876;2023-12-07T02:21:54;2.20;99.90
13673;DHT22;6909;52.202;9.876;2023-12-07T02:24:25;2.20;99.90
13673;DHT22;6909;52.202;9.876;2023-12-07T02:26:54;2.20;99.90
13673;DHT22;6909;52.202;9.876;2023-12-07T02:29:20;2.20;99.90
13673;DHT22;6909;52.202;9.876;2023-12-07T02:31:47;2.20;99.90
13673;DHT22;6909;52.202;9.876;2023-12-07T02:34:14;2.10;99.90
13673;DHT22;6909;52.202;9.876;2023-12-07T02:36:42;2.20;99.90
13673;DHT22;6909;52.202;9.876;2023-12-07T02:39:10;2.20;99.90
13673;DHT22;6909;52.202;9.876;2023-12-07T02:41:39;2.20;99.90
13673;DHT22;6909;52.202;9.876;2023-12-07T02:44:08;2.20;99.90
13673;DHT22;6909;52.202;9.876;2023-12-07T02:46:35;2.20;99.90
13673;DHT22;6909;52.202;9.876;2023-12-07T02:49:02;2.20;99.90
13673;DHT22;6909;52.202;9.876;2023-12-07T02:51:29;2.20;99.90
13673;DHT22;6909;52.202;9.876;2023-12-07T02:53:57;2.20;99.90
13673;DHT22;6909;52.202;9.876;2023-12-07T02:56:24;2.20;99.90
13673;DHT22;6909;52.202;9.876;2023-12-07T02:58:52;2.20;99.90
13673;DHT22;6909;52.202;9.876;2023-12-07T03:01:19;2.20;99.90
13673;DHT22;6909;52.202;9.876;2023-12-07T03:03:46;2.20;99.90
13673;DHT22;6909;52.202;9.876;2023-12-07T03:06:13;2.20;99.90
13673;DHT22;6909;52.202;9.876;2023-12-07T03:08:41;2.20;99.90
13673;DHT22;6909;52.202;9.876;2023-12-07T03:11:07;2.20;99.90
13673;DHT22;6909;52.202;9.876;2023-12-07T03:13:34;2.20;99.90
13673;DHT22;6909;52.202;9.876;2023-12-07T03:16:01;2.20;99.90
13673;DHT22;6909;52.202;9.876;2023-12-07T03:18:28;2.20;99.90
13673;DHT22;6909;52.202;9.876;2023-12-07T03:20:55;2.20;99.90
13673;DHT22;6909;52.202;9.876;2023-12-07T03:23:22;2.20;99.90
13673;DHT22;6909;52.202;9.876;2023-12-07T03:25:48;2.20;99.90
13673;DHT22;6909;52.202;9.876;2023-12-07T03:28:14;2.20;99.90
13673;DHT22;6909;52.202;9.876;2023-12-07T03:30:41;2.20;99.90
13673;DHT22;6909;52.202;9.876;2023-12-07T03:33:08;2.20;99.90
13673;DHT22;6909;52.202;9.876;2023-12-07T03:35:35;2.20;99.90
13673;DHT22;6909;52.202;9.876;2023-12-07T03:38:02;2.20;99.90
13673;DHT22;6909;52.202;9.876;2023-12-07T03:40:29;2.20;99.90
13673;DHT22;6909;52.202;9.876;2023-12-07T03:42:55;2.20;99.90
13673;DHT22;6909;52.202;9.876;2023-12-07T03:45:21;2.20;99.90
13673;DHT22;6909;52.202;9.876;2023-12-07T03:47:48;2.30;99.90
13673;DHT22;6909;52.202;9.876;2023-12-07T03:50:14;2.30;99.90
13673;DHT22;6909;52.202;9.876;2023-12-07T03:52:42;2.30;99.90
13673;DHT22;6909;52.202;9.876;2023-12-07T03:55:11;2.30;99.90
13673;DHT22;6909;52.202;9.876;2023-12-07T03:57:38;2.30;99.90
13673;DHT22;6909;52.202;9.876;2023-12-07T04:00:06;2.30;99.90
13673;DHT22;6909;52.202;9.876;2023-12-07T04:02:33;2.30;99.90
13673;DHT22;6909;52.202;9.876;2023-12-07T04:05:03;2.20;99.90
13673;DHT22;6909;52.202;9.876;2023-12-07T04:07:30;2.30;99.90
13673;DHT22;6909;52.202;9.876;2023-12-07T04:09:58;2.30;99.90
13673;DHT22;6909;52.202;9.876;2023-12-07T04:12:24;2.30;99.90
13673;DHT22;6909;52.202;9.876;2023-12-07T04:14:51;2.40;99.90
13673;DHT22;6909;52.202;9.876;2023-12-07T04:17:18;2.40;99.90
13673;DHT22;6909;52.202;9.876;2023-12-07T04:19:44;2.30;99.90
13673;DHT22;6909;52.202;9.876;2023-12-07T04:22:11;2.40;99.90
13673;DHT22;6909;52.202;9.876;2023-12-07T04:24:38;2.30;99.90
13673;DHT22;6909;52.202;9.876;2023-12-07T04:27:06;2.40;99.90
13673;DHT22;6909;52.202;9.876;2023-12-07T04:29:32;2.40;99.90
13673;DHT22;6909;52.202;9.876;2023-12-07T04:31:59;2.40;99.90
13673;DHT22;6909;52.202;9.876;2023-12-07T04:34:27;2.40;99.90
13673;DHT22;6909;52.202;9.876;2023-12-07T04:36:53;2.40;99.90
13673;DHT22;6909;52.202;9.876;2023-12-07T04:39:20;2.30;99.90
13673;DHT22;6909;52.202;9.876;2023-12-07T04:41:47;2.40;99.90
13673;DHT22;6909;52.202;9.876;2023-12-07T04:44:16;2.40;99.90
13673;DHT22;6909;52.202;9.876;2023-12-07T04:46:42;2.40;99.90
13673;DHT22;6909;52.202;9.876;2023-12-07T04:49:09;2.40;99.90
13673;DHT22;6909;52.202;9.876;2023-12-07T04:51:36;2.40;99.90
13673;DHT22;6909;52.202;9.876;2023-12-07T04:54:02;2.40;99.90
13673;DHT22;6909;52.202;9.876;2023-12-07T04:56:29;2.40;99.90
13673;DHT22;6909;52.202;9.876;2023-12-07T04:58:56;2.40;99.90
13673;DHT22;6909;52.202;9.876;2023-12-07T05:01:24;2.40;99.90
13673;DHT22;6909;52.202;9.876;2023-12-07T05:03:50;2.40;99.90
13673;DHT22;6909;52.202;9.876;2023-12-07T05:06:17;2.40;99.90
13673;DHT22;6909;52.202;9.876;2023-12-07T05:08:43;2.40;99.90
13673;DHT22;6909;52.202;9.876;2023-12-07T05:11:10;2.40;99.90
13673;DHT22;6909;52.202;9.876;2023-12-07T05:13:37;2.50;99.90
13673;DHT22;6909;52.202;9.876;2023-12-07T05:16:04;2.40;99.90
13673;DHT22;6909;52.202;9.876;2023-12-07T05:18:32;2.50;99.90
13673;DHT22;6909;52.202;9.876;2023-12-07T05:20:59;2.40;99.90
13673;DHT22;6909;52.202;9.876;2023-12-07T05:23:25;2.50;99.90
13673;DHT22;6909;52.202;9.876;2023-12-07T05:25:52;2.40;99.90
13673;DHT22;6909;52.202;9.876;2023-12-07T05:28:19;2.40;99.90
13673;DHT22;6909;52.202;9.876;2023-12-07T05:30:46;2.40;99.90
13673;DHT22;6909;52.202;9.876;2023-12-07T05:33:13;2.40;99.90
13673;DHT22;6909;52.202;9.876;2023-12-07T05:35:41;2.40;99.90
13673;DHT22;6909;52.202;9.876;2023-12-07T05:38:08;2.40;99.90
13673;DHT22;6909;52.202;9.876;2023-12-07T05:40:34;2.40;99.90
13673;DHT22;6909;52.202;9.876;2023-12-07T05:43:01;2.40;99.90
13673;DHT22;6909;52.202;9.876;2023-12-07T05:45:27;2.30;99.90
13673;DHT22;6909;52.202;9.876;2023-12-07T05:47:54;2.30;99.90
13673;DHT22;6909;52.202;9.876;2023-12-07T05:50:21;2.30;99.90
13673;DHT22;6909;52.202;9.876;2023-12-07T05:52:49;2.30;99.90
13673;DHT22;6909;52.202;9.876;2023-12-07T05:55:15;2.30;99.90
13673;DHT22;6909;52.202;9.876;2023-12-07T05:57:44;2.30;99.90
13673;DHT22;6909;52.202;9.876;2023-12-07T06:00:12;2.20;99.90
13673;DHT22;6909;52.202;9.876;2023-12-07T06:02:41;2.20;99.90
13673;DHT22;6909;52.202;9.876;2023-12-07T06:05:09;2.20;99.90
13673;DHT22;6909;52.202;9.876;2023-12-07T06:07:36;2.20;99.90
13673;DHT22;6909;52.202;9.876;2023-12-07T06:10:05;2.20;99.90
13673;DHT22;6909;52.202;9.876;2023-12-07T06:12:32;2.20;99.90
13673;DHT22;6909;52.202;9.876;2023-12-07T06:14:59;2.20;99.90
13673;DHT22;6909;52.202;9.876;2023-12-07T06:17:26;2.20;99.90
13673;DHT22;6909;52.202;9.876;2023-12-07T06:19:52;2.30;99.90
13673;DHT22;6909;52.202;9.876;2023-12-07T06:22:19;2.20;99.90
13673;DHT22;6909;52.202;9.876;2023-12-07T06:24:46;2.20;99.90
13673;DHT22;6909;52.202;9.876;2023-12-07T06:27:14;2.20;99.90
13673;DHT22;6909;52.202;9.876;2023-12-07T06:29:40;2.20;99.90
13673;DHT22;6909;52.202;9.876;2023-12-07T06:32:07;2.20;99.90
13673;DHT22;6909;52.202;9.876;2023-12-07T06:34:33;2.20;99.90
13673;DHT22;6909;52.202;9.876;2023-12-07T06:37:00;2.20;99.90
13673;DHT22;6909;52.202;9.876;2023-12-07T06:39:29;2.20;99.90
13673;DHT22;6909;52.202;9.876;2023-12-07T06:41:56;2.20;99.90
13673;DHT22;6909;52.202;9.876;2023-12-07T06:44:24;2.20;99.90
13673;DHT22;6909;52.202;9.876;2023-12-07T06:46:51;2.20;99.90
13673;DHT22;6909;52.202;9.876;2023-12-07T06:49:17;2.20;99.90
13673;DHT22;6909;52.202;9.876;2023-12-07T06:51:44;2.20;99.90
13673;DHT22;6909;52.202;9.876;2023-12-07T06:54:11;2.20;99.90
13673;DHT22;6909;52.202;9.876;2023-12-07T06:56:39;2.30;99.90
13673;DHT22;6909;52.202;9.876;2023-12-07T06:59:05;2.30;99.90
13673;DHT22;6909;52.202;9.876;2023-12-07T07:01:33;2.30;99.90
13673;DHT22;6909;52.202;9.876;2023-12-07T07:04:00;2.30;99.90
13673;DHT22;6909;52.202;9.876;2023-12-07T07:06:27;2.20;99.90
13673;DHT22;6909;52.202;9.876;2023-12-07T07:08:53;2.30;99.90
13673;DHT22;6909;52.202;9.876;2023-12-07T07:11:20;2.30;99.90
13673;DHT22;6909;52.202;9.876;2023-12-07T07:13:46;2.30;99.90
13673;DHT22;6909;52.202;9.876;2023-12-07T07:16:13;2.30;99.90
13673;DHT22;6909;52.202;9.876;2023-12-07T07:18:41;2.30;99.90
13673;DHT22;6909;52.202;9.876;2023-12-07T07:21:08;2.30;99.90
13673;DHT22;6909;52.202;9.876;2023-12-07T07:23:35;2.30;99.90
13673;DHT22;6909;52.202;9.876;2023-12-07T07:26:02;2.30;99.90
13673;DHT22;6909;52.202;9.876;2023-12-07T07:28:28;2.40;99.90
13673;DHT22;6909;52.202;9.876;2023-12-07T07:30:55;2.40;99.90
13673;DHT22;6909;52.202;9.876;2023-12-07T07:33:22;2.40;99.90
13673;DHT22;6909;52.202;9.876;2023-12-07T07:35:50;2.40;99.90
13673;DHT22;6909;52.202;9.876;2023-12-07T07:38:16;2.40;99.90
13673;DHT22;6909;52.202;9.876;2023-12-07T07:40:43;2.40;99.90
13673;DHT22;6909;52.202;9.876;2023-12-07T07:43:10;2.40;99.90
13673;DHT22;6909;52.202;9.876;2023-12-07T07:45:37;2.40;99.90
13673;DHT22;6909;52.202;9.876;2023-12-07T07:48:04;2.40;99.90
13673;DHT22;6909;52.202;9.876;2023-12-07T07:50:31;2.50;99.90
13673;DHT22;6909;52.202;9.876;2023-12-07T07:52:59;2.50;99.90
13673;DHT22;6909;52.202;9.876;2023-12-07T07:55:27;2.40;99.90
13673;DHT22;6909;52.202;9.876;2023-12-07T07:57:53;2.50;99.90
13673;DHT22;6909;52.202;9.876;2023-12-07T08:00:20;2.50;99.90
13673;DHT22;6909;52.202;9.876;2023-12-07T08:02:47;2.60;99.90
13673;DHT22;6909;52.202;9.876;2023-12-07T08:05:14;2.60;99.90
13673;DHT22;6909;52.202;9.876;2023-12-07T08:07:41;2.60;99.90
13673;DHT22;6909;52.202;9.876;2023-12-07T08:10:09;2.60;99.90
13673;DHT22;6909;52.202;9.876;2023-12-07T08:12:36;2.60;99.90
13673;DHT22;6909;52.202;9.876;2023-12-07T08:15:04;2.60;99.90
13673;DHT22;6909;52.202;9.876;2023-12-07T08:17:36;2.70;99.90
13673;DHT22;6909;52.202;9.876;2023-12-07T08:20:04;2.80;99.90
13673;DHT22;6909;52.202;9.876;2023-12-07T08:22:32;2.70;99.90
13673;DHT22;6909;52.202;9.876;2023-12-07T08:24:59;2.80;99.90
13673;DHT22;6909;52.202;9.876;2023-12-07T08:27:27;2.80;99.90
13673;DHT22;6909;52.202;9.876;2023-12-07T08:29:54;2.80;99.90
13673;DHT22;6909;52.202;9.876;2023-12-07T08:32:20;2.80;99.90
13673;DHT22;6909;52.202;9.876;2023-12-07T08:34:47;2.80;99.90
13673;DHT22;6909;52.202;9.876;2023-12-07T08:37:14;2.90;99.90
13673;DHT22;6909;52.202;9.876;2023-12-07T08:39:40;3.00;99.90
13673;DHT22;6909;52.202;9.876;2023-12-07T08:42:08;3.00;99.90
13673;DHT22;6909;52.202;9.876;2023-12-07T08:44:36;3.00;99.90
13673;DHT22;6909;52.202;9.876;2023-12-07T08:47:03;3.00;99.90
13673;DHT22;6909;52.202;9.876;2023-12-07T08:49:30;3.00;99.90
13673;DHT22;6909;52.202;9.876;2023-12-07T08:51:57;3.00;99.90
13673;DHT22;6909;52.202;9.876;2023-12-07T08:54:25;3.10;99.90
13673;DHT22;6909;52.202;9.876;2023-12-07T08:56:52;3.10;99.90
13673;DHT22;6909;52.202;9.876;2023-12-07T08:59:18;3.00;99.90
13673;DHT22;6909;52.202;9.876;2023-12-07T09:01:47;3.00;99.90
13673;DHT22;6909;52.202;9.876;2023-12-07T09:04:14;3.10;99.90
13673;DHT22;6909;52.202;9.876;2023-12-07T09:06:41;3.10;99.90
13673;DHT22;6909;52.202;9.876;2023-12-07T09:09:07;3.10;99.90
13673;DHT22;6909;52.202;9.876;2023-12-07T09:11:34;3.10;99.90
13673;DHT22;6909;52.202;9.876;2023-12-07T09:14:00;3.10;99.90
13673;DHT22;6909;52.202;9.876;2023-12-07T09:16:27;3.10;99.90
13673;DHT22;6909;52.202;9.876;2023-12-07T09:18:55;3.20;99.90
13673;DHT22;6909;52.202;9.876;2023-12-07T09:21:21;3.10;99.90
13673;DHT22;6909;52.202;9.876;2023-12-07T09:23:48;3.10;99.90
13673;DHT22;6909;52.202;9.876;2023-12-07T09:26:15;3.20;99.90
13673;DHT22;6909;52.202;9.876;2023-12-07T09:28:41;3.10;99.90
13673;DHT22;6909;52.202;9.876;2023-12-07T09:31:08;3.20;99.90
13673;DHT22;6909;52.202;9.876;2023-12-07T09:33:35;3.20;99.90
13673;DHT22;6909;52.202;9.876;2023-12-07T09:36:03;3.20;99.90
13673;DHT22;6909;52.202;9.876;2023-12-07T09:38:35;3.30;99.90
13673;DHT22;6909;52.202;9.876;2023-12-07T09:41:02;3.30;99.90
13673;DHT22;6909;52.202;9.876;2023-12-07T09:43:29;3.30;99.90
13673;DHT22;6909;52.202;9.876;2023-12-07T09:45:57;3.30;99.90
13673;DHT22;6909;52.202;9.876;2023-12-07T09:48:24;3.20;99.90
13673;DHT22;6909;52.202;9.876;2023-12-07T09:50:52;3.30;99.90
13673;DHT22;6909;52.202;9.876;2023-12-07T09:53:20;3.30;99.90
13673;DHT22;6909;52.202;9.876;2023-12-07T09:55:48;3.30;99.90
13673;DHT22;6909;52.202;9.876;2023-12-07T09:58:15;3.30;99.90
13673;DHT22;6909;52.202;9.876;2023-12-07T10:00:41;3.30;99.90
13673;DHT22;6909;52.202;9.876;2023-12-07T10:03:20;3.40;99.90
13673;DHT22;6909;52.202;9.876;2023-12-07T10:05:54;3.40;99.90
13673;DHT22;6909;52.202;9.876;2023-12-07T10:08:27;3.40;99.90
13673;DHT22;6909;52.202;9.876;2023-12-07T10:11:02;3.30;99.90
13673;DHT22;6909;52.202;9.876;2023-12-07T10:13:30;3.50;99.90
13673;DHT22;6909;52.202;9.876;2023-12-07T10:16:06;3.50;99.90
13673;DHT22;6909;52.202;9.876;2023-12-07T10:18:34;3.50;99.90
13673;DHT22;6909;52.202;9.876;2023-12-07T10:21:01;3.40;99.90
13673;DHT22;6909;52.202;9.876;2023-12-07T10:23:29;3.50;99.90
13673;DHT22;6909;52.202;9.876;2023-12-07T10:25:58;3.60;99.90
13673;DHT22;6909;52.202;9.876;2023-12-07T10:28:25;3.60;99.90
13673;DHT22;6909;52.202;9.876;2023-12-07T10:30:52;3.60;99.90
13673;DHT22;6909;52.202;9.876;2023-12-07T10:33:19;3.70;99.90
13673;DHT22;6909;52.202;9.876;2023-12-07T10:35:47;3.60;99.90
13673;DHT22;6909;52.202;9.876;2023-12-07T10:38:14;3.60;99.90
13673;DHT22;6909;52.202;9.876;2023-12-07T10:40:42;3.70;99.90
13673;DHT22;6909;52.202;9.876;2023-12-07T10:43:09;3.80;99.90
13673;DHT22;6909;52.202;9.876;2023-12-07T10:45:36;3.80;99.90
13673;DHT22;6909;52.202;9.876;2023-12-07T10:48:05;3.70;99.90
13673;DHT22;6909;52.202;9.876;2023-12-07T10:50:34;3.80;99.90
13673;DHT22;6909;52.202;9.876;2023-12-07T10:53:08;3.70;99.90
13673;DHT22;6909;52.202;9.876;2023-12-07T10:55:40;3.70;99.90
13673;DHT22;6909;52.202;9.876;2023-12-07T10:58:11;3.70;99.90
13673;DHT22;6909;52.202;9.876;2023-12-07T11:00:42;3.80;99.90
13673;DHT22;6909;52.202;9.876;2023-12-07T11:03:14;3.80;99.90
13673;DHT22;6909;52.202;9.876;2023-12-07T11:05:42;3.80;99.90
13673;DHT22;6909;52.202;9.876;2023-12-07T11:08:11;3.90;99.90
13673;DHT22;6909;52.202;9.876;2023-12-07T11:10:53;3.90;99.90
13673;DHT22;6909;52.202;9.876;2023-12-07T11:13:26;3.90;99.90
13673;DHT22;6909;52.202;9.876;2023-12-07T11:15:53;3.90;99.90
13673;DHT22;6909;52.202;9.876;2023-12-07T11:18:20;3.90;99.90
13673;DHT22;6909;52.202;9.876;2023-12-07T11:20:47;3.90;99.90
13673;DHT22;6909;52.202;9.876;2023-12-07T11:23:17;4.00;99.90
13673;DHT22;6909;52.202;9.876;2023-12-07T11:25:45;4.10;99.90
13673;DHT22;6909;52.202;9.876;2023-12-07T11:28:12;4.00;99.90
13673;DHT22;6909;52.202;9.876;2023-12-07T11:30:44;4.20;99.90
13673;DHT22;6909;52.202;9.876;2023-12-07T11:33:11;4.40;99.90
13673;DHT22;6909;52.202;9.876;2023-12-07T11:36:02;4.30;99.90
13673;DHT22;6909;52.202;9.876;2023-12-07T11:38:29;4.30;99.90
13673;DHT22;6909;52.202;9.876;2023-12-07T11:40:57;4.30;99.90
13673;DHT22;6909;52.202;9.876;2023-12-07T11:43:40;4.40;99.90
13673;DHT22;6909;52.202;9.876;2023-12-07T11:46:11;4.40;99.90
13673;DHT22;6909;52.202;9.876;2023-12-07T11:48:38;4.40;99.90
13673;DHT22;6909;52.202;9.876;2023-12-07T11:51:06;4.40;99.90
13673;DHT22;6909;52.202;9.876;2023-12-07T11:53:34;4.50;99.90
13673;DHT22;6909;52.202;9.876;2023-12-07T11:56:02;4.60;99.90
13673;DHT22;6909;52.202;9.876;2023-12-07T11:58:30;4.50;99.90
13673;DHT22;6909;52.202;9.876;2023-12-07T12:00:57;4.50;99.90
13673;DHT22;6909;52.202;9.876;2023-12-07T12:03:26;4.60;99.90
13673;DHT22;6909;52.202;9.876;2023-12-07T12:05:53;4.60;99.90
13673;DHT22;6909;52.202;9.876;2023-12-07T12:08:23;4.70;99.90
13673;DHT22;6909;52.202;9.876;2023-12-07T12:10:50;4.70;99.90
13673;DHT22;6909;52.202;9.876;2023-12-07T12:13:19;4.60;99.90
13673;DHT22;6909;52.202;9.876;2023-12-07T12:15:46;4.70;99.90
13673;DHT22;6909;52.202;9.876;2023-12-07T12:18:13;4.70;99.90
13673;DHT22;6909;52.202;9.876;2023-12-07T12:20:44;4.70;99.90
13673;DHT22;6909;52.202;9.876;2023-12-07T12:23:12;4.80;99.90
13673;DHT22;6909;52.202;9.876;2023-12-07T12:25:39;4.70;99.90
13673;DHT22;6909;52.202;9.876;2023-12-07T12:28:07;4.70;99.90
13673;DHT22;6909;52.202;9.876;2023-12-07T12:30:34;4.70;99.90
13673;DHT22;6909;52.202;9.876;2023-12-07T12:33:01;4.80;99.90
13673;DHT22;6909;52.202;9.876;2023-12-07T12:35:28;4.80;99.90
13673;DHT22;6909;52.202;9.876;2023-12-07T12:37:56;4.90;99.90
13673;DHT22;6909;52.202;9.876;2023-12-07T12:40:26;4.90;99.90
13673;DHT22;6909;52.202;9.876;2023-12-07T12:42:54;5.00;99.90
13673;DHT22;6909;52.202;9.876;2023-12-07T12:45:21;5.00;99.90
13673;DHT22;6909;52.202;9.876;2023-12-07T12:47:48;4.90;99.90
13673;DHT22;6909;52.202;9.876;2023-12-07T12:50:33;4.90;99.90
13673;DHT22;6909;52.202;9.876;2023-12-07T12:53:03;5.00;99.90
13673;DHT22;6909;52.202;9.876;2023-12-07T12:55:31;5.10;99.90
13673;DHT22;6909;52.202;9.876;2023-12-07T12:57:57;5.10;99.90
13673;DHT22;6909;52.202;9.876;2023-12-07T13:00:25;5.10;99.90
13673;DHT22;6909;52.202;9.876;2023-12-07T13:02:52;5.10;99.90
13673;DHT22;6909;52.202;9.876;2023-12-07T13:05:18;5.10;99.90
13673;DHT22;6909;52.202;9.876;2023-12-07T13:07:45;5.10;99.90
13673;DHT22;6909;52.202;9.876;2023-12-07T13:10:17;5.10;99.90
13673;DHT22;6909;52.202;9.876;2023-12-07T13:12:44;5.10;99.90
13673;DHT22;6909;52.202;9.876;2023-12-07T13:15:11;5.10;99.90
13673;DHT22;6909;52.202;9.876;2023-12-07T13:17:39;5.10;99.90
13673;DHT22;6909;52.202;9.876;2023-12-07T13:20:06;4.80;99.90
13673;DHT22;6909;52.202;9.876;2023-12-07T13:22:37;4.80;99.90
13673;DHT22;6909;52.202;9.876;2023-12-07T13:25:06;4.70;99.90
13673;DHT22;6909;52.202;9.876;2023-12-07T13:27:35;4.70;99.90
13673;DHT22;6909;52.202;9.876;2023-12-07T13:30:03;4.60;99.90
13673;DHT22;6909;52.202;9.876;2023-12-07T13:32:33;4.60;99.90
13673;DHT22;6909;52.202;9.876;2023-12-07T13:35:02;4.60;99.90
13673;DHT22;6909;52.202;9.876;2023-12-07T13:37:30;4.60;99.90
13673;DHT22;6909;52.202;9.876;2023-12-07T13:39:58;4.60;99.90
13673;DHT22;6909;52.202;9.876;2023-12-07T13:42:27;4.50;99.90
13673;DHT22;6909;52.202;9.876;2023-12-07T13:44:56;4.50;99.90
13673;DHT22;6909;52.202;9.876;2023-12-07T13:47:23;4.40;99.90
13673;DHT22;6909;52.202;9.876;2023-12-07T13:49:54;4.40;99.90
13673;DHT22;6909;52.202;9.876;2023-12-07T13:52:21;4.40;99.90
13673;DHT22;6909;52.202;9.876;2023-12-07T13:54:50;4.50;99.90
13673;DHT22;6909;52.202;9.876;2023-12-07T13:57:18;4.50;99.90
13673;DHT22;6909;52.202;9.876;2023-12-07T13:59:47;4.60;99.90
13673;DHT22;6909;52.202;9.876;2023-12-07T14:02:15;4.70;99.90
13673;DHT22;6909;52.202;9.876;2023-12-07T14:04:41;4.70;99.90
13673;DHT22;6909;52.202;9.876;2023-12-07T14:07:11;4.70;99.90
13673;DHT22;6909;52.202;9.876;2023-12-07T14:09:40;4.70;99.90
13673;DHT22;6909;52.202;9.876;2023-12-07T14:12:07;4.70;99.90
13673;DHT22;6909;52.202;9.876;2023-12-07T14:14:36;4.60;99.90
13673;DHT22;6909;52.202;9.876;2023-12-07T14:17:03;4.70;99.90
13673;DHT22;6909;52.202;9.876;2023-12-07T14:19:31;4.60;99.90
13673;DHT22;6909;52.202;9.876;2023-12-07T14:22:00;4.60;99.90
13673;DHT22;6909;52.202;9.876;2023-12-07T14:24:27;4.70;99.90
13673;DHT22;6909;52.202;9.876;2023-12-07T14:26:56;4.70;99.90
13673;DHT22;6909;52.202;9.876;2023-12-07T14:29:24;4.60;99.90
13673;DHT22;6909;52.202;9.876;2023-12-07T14:31:51;4.60;99.90
13673;DHT22;6909;52.202;9.876;2023-12-07T14:34:18;4.40;99.90
13673;DHT22;6909;52.202;9.876;2023-12-07T14:36:46;4.30;99.90
13673;DHT22;6909;52.202;9.876;2023-12-07T14:39:14;4.20;99.90
13673;DHT22;6909;52.202;9.876;2023-12-07T14:41:44;4.10;99.90
13673;DHT22;6909;52.202;9.876;2023-12-07T14:44:13;3.80;99.90
13673;DHT22;6909;52.202;9.876;2023-12-07T14:46:42;3.50;99.90
13673;DHT22;6909;52.202;9.876;2023-12-07T14:49:10;3.40;99.90
13673;DHT22;6909;52.202;9.876;2023-12-07T14:51:37;3.50;99.90
13673;DHT22;6909;52.202;9.876;2023-12-07T14:54:05;3.60;99.90
13673;DHT22;6909;52.202;9.876;2023-12-07T14:56:32;3.60;99.90
13673;DHT22;6909;52.202;9.876;2023-12-07T14:59:01;3.70;99.90
13673;DHT22;6909;52.202;9.876;2023-12-07T15:01:30;3.60;99.90
13673;DHT22;6909;52.202;9.876;2023-12-07T15:03:57;3.40;99.90
13673;DHT22;6909;52.202;9.876;2023-12-07T15:06:24;3.40;99.90
13673;DHT22;6909;52.202;9.876;2023-12-07T15:08:51;3.50;99.90
13673;DHT22;6909;52.202;9.876;2023-12-07T15:11:19;3.50;99.90
13673;DHT22;6909;52.202;9.876;2023-12-07T15:13:48;3.50;99.90
13673;DHT22;6909;52.202;9.876;2023-12-07T15:16:14;3.40;99.90
13673;DHT22;6909;52.202;9.876;2023-12-07T15:18:41;3.30;99.90
13673;DHT22;6909;52.202;9.876;2023-12-07T15:21:10;3.30;99.90
13673;DHT22;6909;52.202;9.876;2023-12-07T15:23:38;3.30;99.90
13673;DHT22;6909;52.202;9.876;2023-12-07T15:26:04;3.20;99.90
13673;DHT22;6909;52.202;9.876;2023-12-07T15:28:35;2.50;99.90
13673;DHT22;6909;52.202;9.876;2023-12-07T15:31:02;2.00;99.90
13673;DHT22;6909;52.202;9.876;2023-12-07T15:33:36;1.70;99.90
13673;DHT22;6909;52.202;9.876;2023-12-07T15:36:04;1.80;99.90
13673;DHT22;6909;52.202;9.876;2023-12-07T15:38:33;1.80;99.90
13673;DHT22;6909;52.202;9.876;2023-12-07T15:40:59;1.60;99.90
13673;DHT22;6909;52.202;9.876;2023-12-07T15:43:29;1.60;99.90
13673;DHT22;6909;52.202;9.876;2023-12-07T15:46:01;2.00;99.90
13673;DHT22;6909;52.202;9.876;2023-12-07T15:48:28;2.30;99.90
13673;DHT22;6909;52.202;9.876;2023-12-07T15:51:07;2.40;99.90
13673;DHT22;6909;52.202;9.876;2023-12-07T15:53:34;2.30;99.90
13673;DHT22;6909;52.202;9.876;2023-12-07T15:56:04;2.10;99.90
13673;DHT22;6909;52.202;9.876;2023-12-07T15:58:32;2.00;99.90
13673;DHT22;6909;52.202;9.876;2023-12-07T16:01:08;2.10;99.90
13673;DHT22;6909;52.202;9.876;2023-12-07T16:03:36;2.20;99.90
13673;DHT22;6909;52.202;9.876;2023-12-07T16:06:03;2.00;99.90